Tampa, Florida
Traffic Map
Current Weather Conditions
Tampa, Florida
Few Clouds
Few Clouds
33°
Feels Like: 35°
Wind Chill: 33° Ceiling: Unl
Heat Index: 35° Visibility: 10mi
Dew Point: 20° Wind: 8mph
Humidity: 47% Direction: 230° (SW)
Pressure: 30.09in Gusts: 0mph
Raw Report DataKTPA 041853Z 23007KT 10SM FEW038TCU FEW220 33/20 A3009 RMK AO2 SLP189 OCNL LTGIC DSNT W CB DSNT W TCU ALQDS SHRA DSNT W T03280200
Traffic Incident Summary
Active as of:
Severity:
Category:
InformationThere was an issue retrieving the traffic information for this location. Please try a different location or try again shortly.
Advertisements
Track Severe Weather on mobile